createdAt,value
2018-05-10T00:01:28.994Z,15.13
2018-05-10T00:03:58.386Z,18.93
2018-05-10T00:06:28.059Z,14.70
2018-05-10T00:08:57.734Z,15.97
2018-05-10T00:11:27.373Z,18.40
2018-05-10T00:13:56.999Z,15.50
2018-05-10T00:16:26.634Z,17.57
2018-05-10T00:18:56.504Z,17.70
2018-05-10T00:21:26.167Z,18.00
2018-05-10T00:23:55.805Z,21.17
2018-05-10T00:26:25.452Z,18.33
2018-05-10T00:28:55.086Z,15.87
2018-05-10T00:31:24.716Z,18.03
2018-05-10T00:33:54.375Z,19.23
2018-05-10T00:36:23.997Z,16.63
2018-05-10T00:38:53.352Z,14.13
2018-05-10T00:41:22.994Z,17.97
2018-05-10T00:43:52.623Z,21.50
2018-05-10T00:46:22.260Z,18.83
2018-05-10T00:48:51.896Z,19.33
2018-05-10T00:51:21.290Z,19.87
2018-05-10T00:53:50.910Z,16.07
2018-05-10T00:56:20.544Z,18.53
2018-05-10T00:58:50.172Z,19.00
2018-05-10T01:01:19.791Z,20.20
2018-05-10T01:03:49.465Z,21.40
2018-05-10T01:06:18.802Z,19.60
2018-05-10T01:08:48.422Z,16.50
2018-05-10T01:11:18.046Z,17.90
2018-05-10T01:13:47.684Z,17.33
2018-05-10T01:16:17.021Z,17.93
2018-05-10T01:18:46.653Z,20.23
2018-05-10T01:21:16.303Z,16.63
2018-05-10T01:23:45.970Z,18.90
2018-05-10T01:26:15.336Z,26.67
2018-05-10T01:28:45.008Z,20.73
2018-05-10T01:31:14.631Z,19.47
2018-05-10T01:33:43.990Z,21.73
2018-05-10T01:36:15.563Z,20.73
2018-05-10T01:38:45.198Z,17.63
2018-05-10T01:41:14.876Z,21.67
2018-05-10T01:43:44.523Z,17.10
2018-05-10T01:46:13.664Z,25.70
2018-05-10T01:48:43.283Z,20.00
2018-05-10T01:51:12.928Z,21.47
2018-05-10T01:53:42.601Z,23.60
2018-05-10T01:56:12.235Z,18.83
2018-05-10T01:58:41.880Z,21.73
2018-05-10T02:01:11.509Z,25.97
2018-05-10T02:03:41.154Z,23.67
2018-05-10T02:06:10.827Z,24.07
2018-05-10T02:08:40.461Z,20.43
2018-05-10T02:11:10.112Z,18.37
2018-05-10T02:13:39.748Z,18.20
2018-05-10T02:16:09.375Z,18.23
2018-05-10T02:18:39.132Z,21.33
2018-05-10T02:21:08.770Z,18.00
2018-05-10T02:23:38.395Z,22.90
2018-05-10T02:26:08.023Z,20.23
2018-05-10T02:28:37.654Z,21.67
2018-05-10T02:31:07.321Z,18.77
2018-05-10T02:33:36.955Z,20.13
2018-05-10T02:36:06.582Z,23.33
2018-05-10T02:38:36.217Z,19.67
2018-05-10T02:41:05.623Z,21.93
2018-05-10T02:43:35.299Z,22.60
2018-05-10T02:46:04.940Z,22.50
2018-05-10T02:48:34.580Z,18.97
2018-05-10T02:51:04.219Z,25.80
2018-05-10T02:53:33.851Z,22.00
2018-05-10T02:56:03.522Z,22.93
2018-05-10T02:58:33.193Z,28.97
2018-05-10T03:01:02.599Z,24.97
2018-05-10T03:03:32.235Z,25.07
2018-05-10T03:06:01.872Z,25.20
2018-05-10T03:08:31.534Z,28.20
2018-05-10T03:11:01.191Z,26.27
2018-05-10T03:13:30.836Z,24.53
2018-05-10T03:16:00.472Z,21.37
2018-05-10T03:18:30.131Z,17.70
2018-05-10T03:20:59.821Z,24.57
2018-05-10T03:23:29.460Z,21.33
2018-05-10T03:25:59.082Z,23.77
2018-05-10T03:28:28.723Z,23.13
2018-05-10T03:30:58.351Z,23.17
2018-05-10T03:33:28.020Z,27.47
2018-05-10T03:35:57.650Z,24.97
2018-05-10T03:38:27.276Z,20.30
2018-05-10T03:40:56.929Z,20.27
2018-05-10T03:43:26.561Z,22.73
2018-05-10T03:45:56.241Z,26.17
2018-05-10T03:48:25.888Z,21.97
2018-05-10T03:50:55.514Z,21.97
2018-05-10T03:53:25.142Z,24.57
2018-05-10T03:55:54.785Z,24.20
2018-05-10T03:58:24.446Z,24.43
2018-05-10T04:00:54.067Z,20.20
2018-05-10T04:06:34.413Z,22.73
2018-05-10T04:09:15.004Z,17.93
2018-05-10T04:11:44.124Z,19.77
2018-05-10T04:14:13.755Z,20.13
2018-05-10T04:16:43.393Z,20.40
2018-05-10T04:19:13.024Z,21.33
2018-05-10T04:21:42.695Z,21.13
2018-05-10T04:24:12.314Z,19.83
2018-05-10T04:26:41.957Z,19.13
2018-05-10T04:29:11.578Z,18.00
2018-05-10T04:31:41.205Z,16.53
2018-05-10T04:34:10.883Z,17.57
2018-05-10T04:36:40.528Z,20.93
2018-05-10T04:39:10.142Z,19.17
2018-05-10T04:41:39.828Z,21.07
2018-05-10T04:44:09.464Z,17.60
2018-05-10T04:46:39.130Z,19.33
2018-05-10T04:49:08.478Z,19.20
2018-05-10T04:51:38.109Z,20.53
2018-05-10T04:54:07.774Z,21.73
2018-05-10T04:56:37.404Z,18.40
2018-05-10T04:59:07.075Z,17.47
2018-05-10T05:01:36.716Z,26.40
2018-05-10T05:04:06.878Z,16.80
2018-05-10T05:06:36.512Z,21.13
2018-05-10T05:09:05.815Z,26.93
2018-05-10T05:11:35.467Z,19.33
2018-05-10T05:14:05.096Z,20.67
2018-05-10T05:16:34.742Z,16.50
2018-05-10T05:19:04.368Z,15.33
2018-05-10T05:21:34.079Z,17.97
2018-05-10T05:24:03.892Z,20.97
2018-05-10T05:26:33.519Z,17.00
2018-05-10T05:29:03.144Z,15.40
2018-05-10T05:31:32.769Z,16.23
2018-05-10T05:34:02.400Z,16.93
2018-05-10T05:36:32.197Z,18.17
2018-05-10T05:39:01.988Z,19.07
2018-05-10T05:41:31.368Z,18.00
2018-05-10T05:44:01.054Z,22.27
2018-05-10T05:46:30.708Z,21.33
2018-05-10T05:49:00.376Z,17.97
2018-05-10T05:51:30.003Z,20.90
2018-05-10T05:53:59.637Z,14.93
2018-05-10T05:56:29.268Z,19.23
2018-05-10T05:58:58.887Z,19.27
2018-05-10T06:01:28.616Z,17.27
2018-05-10T06:03:58.253Z,16.37
2018-05-10T06:06:27.883Z,17.03
2018-05-10T06:08:57.511Z,16.97
2018-05-10T06:11:27.153Z,17.57
2018-05-10T06:13:56.823Z,17.57
2018-05-10T06:16:26.454Z,20.80
2018-05-10T06:18:56.083Z,18.30
2018-05-10T06:21:25.714Z,21.10
2018-05-10T06:23:55.339Z,19.47
2018-05-10T06:26:25.007Z,18.47
2018-05-10T06:28:54.644Z,20.63
2018-05-10T06:31:24.400Z,24.90
2018-05-10T06:33:54.084Z,24.10
2018-05-10T06:36:23.893Z,20.87
2018-05-10T06:38:53.584Z,21.37
2018-05-10T06:41:23.232Z,20.17
2018-05-10T06:43:52.869Z,18.17
2018-05-10T06:46:22.563Z,19.43
2018-05-10T06:48:52.789Z,19.20
2018-05-10T06:51:23.014Z,19.60
2018-05-10T06:53:53.252Z,18.52
2018-05-10T06:56:23.462Z,18.87
2018-05-10T06:58:53.735Z,20.08
2018-05-10T07:01:23.974Z,19.67
2018-05-10T07:03:54.258Z,19.15
2018-05-10T07:06:24.536Z,21.75
2018-05-10T07:08:54.794Z,22.58
2018-05-10T07:11:24.419Z,22.37
2018-05-10T07:13:54.098Z,24.10
2018-05-10T07:16:23.737Z,24.60
2018-05-10T07:18:53.375Z,23.37
2018-05-10T07:21:23.012Z,22.10
2018-05-10T07:23:52.643Z,23.10
2018-05-10T07:26:22.329Z,17.73
2018-05-10T07:28:52.541Z,16.45
2018-05-10T07:31:22.805Z,19.70
2018-05-10T07:33:53.025Z,19.02
2018-05-10T07:36:23.303Z,25.40
2018-05-10T07:38:53.528Z,20.88
2018-05-10T07:41:23.811Z,20.62
2018-05-10T07:43:54.007Z,19.92
2018-05-10T07:46:24.202Z,16.90
2018-05-10T07:48:54.458Z,17.87
2018-05-10T07:51:24.699Z,21.48
2018-05-10T07:53:55.037Z,19.95
2018-05-10T07:56:25.256Z,22.02
2018-05-10T07:58:55.474Z,19.30
2018-05-10T08:01:25.732Z,19.73
2018-05-10T08:03:55.955Z,18.77
2018-05-10T08:06:26.237Z,19.85
2018-05-10T08:08:56.175Z,24.37
2018-05-10T08:11:26.415Z,21.20
2018-05-10T08:13:56.645Z,19.42
2018-05-10T08:16:26.870Z,22.25
2018-05-10T08:18:57.143Z,20.33
2018-05-10T08:21:30.979Z,24.05
2018-05-10T08:24:00.656Z,22.33
2018-05-10T08:26:30.283Z,27.83
2018-05-10T08:28:59.639Z,19.10
2018-05-10T08:31:29.042Z,23.10
2018-05-10T08:33:58.725Z,20.73
2018-05-10T08:36:28.448Z,22.10
2018-05-10T08:38:58.238Z,25.37
2018-05-10T08:41:27.888Z,25.23
2018-05-10T08:43:57.511Z,21.73
2018-05-10T08:46:27.735Z,25.73
2018-05-10T08:48:57.998Z,23.38
2018-05-10T08:51:28.237Z,22.20
2018-05-10T08:53:58.512Z,24.17
2018-05-10T08:56:28.727Z,23.67
2018-05-10T08:58:58.972Z,22.80
2018-05-10T09:01:29.178Z,21.48
2018-05-10T09:04:00.358Z,19.20
2018-05-10T09:06:30.624Z,18.02
2018-05-10T09:09:00.573Z,26.65
2018-05-10T09:11:30.199Z,27.23
2018-05-10T09:13:59.863Z,21.73
2018-05-10T09:16:29.575Z,24.07
2018-05-10T09:18:59.250Z,28.80
2018-05-10T09:21:28.874Z,29.67
2018-05-10T09:23:58.495Z,29.63
2018-05-10T09:26:28.127Z,27.33
2018-05-10T09:28:57.772Z,24.37
2018-05-10T09:31:27.503Z,28.50
2018-05-10T09:33:57.362Z,26.87
2018-05-10T09:36:27.213Z,27.43
2018-05-10T09:38:56.852Z,26.27
2018-05-10T09:41:26.494Z,24.97
2018-05-10T09:43:56.123Z,28.53
2018-05-10T09:46:25.760Z,23.33
2018-05-10T09:48:55.445Z,23.50
2018-05-10T09:51:25.067Z,24.97
2018-05-10T09:53:54.715Z,31.63
2018-05-10T09:56:24.373Z,23.17
2018-05-10T09:58:54.012Z,25.47
2018-05-10T10:01:23.689Z,28.53
2018-05-10T10:03:53.324Z,22.13
2018-05-10T10:06:22.973Z,23.10
2018-05-10T10:08:52.628Z,22.73
2018-05-10T10:11:22.849Z,24.17
2018-05-10T10:13:52.529Z,21.00
2018-05-10T10:16:22.168Z,20.07
2018-05-10T10:18:51.804Z,21.57
2018-05-10T10:21:21.668Z,16.63
2018-05-10T10:23:51.296Z,19.10
2018-05-10T10:26:20.976Z,22.05
2018-05-10T10:28:50.505Z,21.58
2018-05-10T10:31:20.745Z,18.08
2018-05-10T10:33:50.982Z,15.88
2018-05-10T10:36:20.618Z,19.00
2018-05-10T10:38:50.385Z,21.10
2018-05-10T10:41:20.617Z,20.12
2018-05-10T10:43:50.845Z,19.45
2018-05-10T10:46:21.054Z,19.15
2018-05-10T10:48:50.702Z,17.42
2018-05-10T10:51:20.960Z,15.43
2018-05-10T10:53:51.201Z,13.27
2018-05-10T10:56:21.659Z,13.23
2018-05-10T10:58:51.882Z,15.27
2018-05-10T11:01:22.140Z,17.90
2018-05-10T11:03:52.357Z,14.80
2018-05-10T11:06:22.586Z,14.48
2018-05-10T11:08:52.899Z,17.62
2018-05-10T11:11:23.336Z,16.48
2018-05-10T11:13:53.592Z,14.87
2018-05-10T11:16:24.014Z,16.30
2018-05-10T11:18:53.675Z,17.80
2018-05-10T11:21:23.884Z,13.00
2018-05-10T11:23:54.121Z,14.07
2018-05-10T11:26:23.480Z,13.20
2018-05-10T11:28:53.346Z,15.87
2018-05-10T11:31:22.991Z,13.47
2018-05-10T11:33:52.702Z,12.10
2018-05-10T11:36:22.375Z,13.57
2018-05-10T11:38:52.000Z,12.87
2018-05-10T11:41:21.624Z,9.80
2018-05-10T11:43:51.260Z,15.70
2018-05-10T11:46:20.888Z,16.23
2018-05-10T11:48:50.558Z,12.70
2018-05-10T11:51:20.778Z,14.55
2018-05-10T11:53:50.421Z,15.20
2018-05-10T11:56:20.621Z,9.95
2018-05-10T11:58:50.269Z,10.75
2018-05-10T12:01:20.499Z,15.85
2018-05-10T12:03:51.035Z,14.45
2018-05-10T12:06:22.280Z,12.45
2018-05-10T12:08:53.438Z,12.07
2018-05-10T12:11:23.699Z,15.65
2018-05-10T12:13:53.911Z,13.45
2018-05-10T12:16:23.560Z,14.20
2018-05-10T12:18:53.179Z,16.60
2018-05-10T12:21:24.214Z,14.90
2018-05-10T12:23:53.887Z,13.73
2018-05-10T12:26:24.105Z,10.10
2018-05-10T12:28:53.744Z,11.97
2018-05-10T12:31:23.359Z,10.40
2018-05-10T12:33:52.984Z,11.27
2018-05-10T12:36:22.646Z,11.13
2018-05-10T12:38:52.276Z,11.47
2018-05-10T12:41:21.926Z,12.83
2018-05-10T12:43:51.564Z,13.77
2018-05-10T12:46:21.189Z,10.90
2018-05-10T12:48:50.851Z,12.60
2018-05-10T12:51:20.463Z,11.93
2018-05-10T12:53:50.075Z,15.17
2018-05-10T12:56:20.295Z,18.25
2018-05-10T12:58:50.111Z,10.83
2018-05-10T13:01:19.782Z,12.07
2018-05-10T13:03:49.395Z,8.57
2018-05-10T13:06:19.624Z,11.12
2018-05-10T13:08:49.243Z,11.23
2018-05-10T13:11:19.451Z,11.30
2018-05-10T13:13:49.710Z,11.85
2018-05-10T13:16:19.924Z,12.32
2018-05-10T13:18:50.164Z,8.98
2018-05-10T13:21:20.367Z,13.82
2018-05-10T13:23:50.600Z,12.95
2018-05-10T13:26:20.811Z,12.90
2018-05-10T13:28:51.109Z,16.02
2018-05-10T13:31:21.512Z,12.37
2018-05-10T13:33:51.687Z,11.50
2018-05-10T13:36:21.338Z,18.67
2018-05-10T13:38:50.983Z,12.27
2018-05-10T13:41:20.632Z,13.67
2018-05-10T13:43:50.315Z,15.50
2018-05-10T13:46:19.931Z,13.37
2018-05-10T13:48:49.553Z,12.97
2018-05-10T13:51:19.190Z,12.70
2018-05-10T13:53:48.830Z,12.30
2018-05-10T13:56:19.110Z,9.63
2018-05-10T13:58:49.048Z,16.43
2018-05-10T14:01:18.735Z,13.03
2018-05-10T14:03:48.360Z,12.33
2018-05-10T14:06:17.990Z,12.67
2018-05-10T14:08:47.620Z,15.87
2018-05-10T14:11:17.264Z,13.63
2018-05-10T14:13:46.951Z,10.73
2018-05-10T14:16:16.588Z,11.43
2018-05-10T14:18:46.228Z,14.33
2018-05-10T14:21:15.861Z,12.33
2018-05-10T14:23:45.560Z,14.13
2018-05-10T14:26:14.922Z,13.07
2018-05-10T14:28:44.563Z,10.53
2018-05-10T14:31:14.295Z,14.53
2018-05-10T14:33:44.556Z,13.88
2018-05-10T14:36:14.808Z,12.60
2018-05-10T14:38:45.051Z,15.07
2018-05-10T14:41:15.513Z,17.45
2018-05-10T14:43:45.817Z,12.68
2018-05-10T14:46:15.966Z,14.60
2018-05-10T14:48:45.965Z,14.38
2018-05-10T14:51:16.204Z,16.58
2018-05-10T14:53:46.424Z,13.82
2018-05-10T14:56:16.640Z,14.27
2018-05-10T14:58:46.299Z,17.67
2018-05-10T15:01:16.585Z,13.30
2018-05-10T15:03:46.826Z,11.45
2018-05-10T15:06:16.564Z,11.40
2018-05-10T15:08:46.791Z,19.40
2018-05-10T15:11:17.019Z,11.63
2018-05-10T15:13:48.130Z,12.77
2018-05-10T15:16:18.376Z,10.85
2018-05-10T15:18:48.025Z,15.63
2018-05-10T15:21:18.282Z,12.43
2018-05-10T15:23:47.982Z,12.60
2018-05-10T15:26:18.205Z,11.70
2018-05-10T15:28:48.134Z,15.65
2018-05-10T15:31:17.957Z,13.87
2018-05-10T15:33:47.694Z,12.40
2018-05-10T15:36:17.347Z,14.97
2018-05-10T15:38:47.651Z,11.63
2018-05-10T15:41:17.860Z,12.02
2018-05-10T15:43:48.385Z,13.88
2018-05-10T15:46:18.868Z,11.90
2018-05-10T15:48:49.153Z,10.52
2018-05-10T15:51:18.775Z,11.37
2018-05-10T15:53:48.427Z,10.67
2018-05-10T15:56:18.078Z,12.03
2018-05-10T15:58:47.706Z,12.13
2018-05-10T16:01:17.413Z,11.13
2018-05-10T16:03:47.054Z,10.17
2018-05-10T16:06:17.288Z,8.40
2018-05-10T16:08:47.489Z,8.65
2018-05-10T16:11:17.703Z,10.75
2018-05-10T16:13:48.069Z,11.20
2018-05-10T16:16:18.430Z,10.43
2018-05-10T16:21:24.968Z,14.25
2018-05-10T16:23:55.230Z,12.25
2018-05-10T16:26:25.477Z,12.32
2018-05-10T16:28:55.888Z,15.68
2018-05-10T16:31:26.104Z,10.77
2018-05-10T16:33:56.323Z,13.98
2018-05-10T16:36:26.563Z,9.65
2018-05-10T16:38:56.755Z,14.23
2018-05-10T16:41:27.023Z,13.30
2018-05-10T16:43:57.316Z,14.50
2018-05-10T16:46:27.447Z,19.48
2018-05-10T16:48:57.089Z,16.47
2018-05-10T16:51:26.717Z,17.83
2018-05-10T16:53:56.383Z,19.23
2018-05-10T16:56:26.018Z,12.67
2018-05-10T16:58:56.267Z,12.77
2018-05-10T17:01:25.908Z,16.20
2018-05-10T17:03:55.552Z,17.53
2018-05-10T17:06:25.215Z,15.40
2018-05-10T17:08:54.851Z,15.87
2018-05-10T17:11:24.485Z,17.23
2018-05-10T17:13:54.121Z,12.23
2018-05-10T17:16:23.749Z,16.00
2018-05-10T17:18:53.414Z,13.73
2018-05-10T17:21:23.630Z,11.82
2018-05-10T17:23:53.290Z,16.30
2018-05-10T17:26:23.487Z,16.42
2018-05-10T17:28:53.122Z,19.10
2018-05-10T17:31:22.868Z,17.47
2018-05-10T17:33:52.642Z,20.07
2018-05-10T17:36:22.297Z,20.27
2018-05-10T17:38:51.952Z,17.73
2018-05-10T17:41:21.578Z,20.90
2018-05-10T17:43:51.257Z,24.30
2018-05-10T17:46:20.942Z,30.43
2018-05-10T17:48:50.584Z,24.13
2018-05-10T17:51:19.956Z,26.83
2018-05-10T17:53:49.584Z,22.03
2018-05-10T17:56:19.492Z,25.97
2018-05-10T17:58:49.313Z,23.20
2018-05-10T18:01:18.959Z,21.30
2018-05-10T18:03:48.756Z,20.07
2018-05-10T18:06:18.438Z,18.60
2018-05-10T18:08:48.077Z,20.27
2018-05-10T18:11:17.716Z,26.23
2018-05-10T18:13:47.447Z,33.00
2018-05-10T18:16:17.197Z,30.13
2018-05-10T18:18:46.868Z,35.63
2018-05-10T18:21:16.499Z,25.03
2018-05-10T18:23:46.125Z,21.30
2018-05-10T18:26:15.754Z,22.70
2018-05-10T18:28:45.394Z,16.53
2018-05-10T18:31:15.076Z,20.77
2018-05-10T18:33:44.448Z,22.23
2018-05-10T18:36:13.798Z,18.83
2018-05-10T18:38:43.434Z,16.40
2018-05-10T18:41:13.074Z,20.17
2018-05-10T18:43:42.739Z,20.70
2018-05-10T18:46:12.389Z,23.93
2018-05-10T18:48:42.045Z,18.87
2018-05-10T18:51:11.391Z,16.07
2018-05-10T18:53:40.742Z,16.27
2018-05-10T18:56:10.140Z,17.33
2018-05-10T18:58:39.854Z,17.37
2018-05-10T19:01:09.115Z,17.87
2018-05-10T19:03:38.580Z,15.47
2018-05-10T19:06:07.947Z,18.80
2018-05-10T19:08:37.351Z,16.90
2018-05-10T19:11:06.713Z,19.67
2018-05-10T19:13:36.078Z,15.27
2018-05-10T19:16:05.103Z,18.57
2018-05-10T19:18:34.769Z,17.67
2018-05-10T19:21:03.885Z,14.77
2018-05-10T19:23:33.253Z,16.83
2018-05-10T19:26:02.608Z,15.90
2018-05-10T19:28:31.750Z,14.57
2018-05-10T19:31:01.098Z,14.73
2018-05-10T19:33:30.767Z,20.97
2018-05-10T19:36:00.132Z,43.17
2018-05-10T19:38:29.255Z,34.33
2018-05-10T19:40:58.880Z,24.70
2018-05-10T19:43:28.511Z,63.67
2018-05-10T19:45:57.959Z,25.57
2018-05-10T19:48:27.600Z,23.50
2018-05-10T19:50:56.968Z,20.83
2018-05-10T19:53:26.634Z,26.73
2018-05-10T19:55:56.266Z,25.90
2018-05-10T19:58:25.666Z,26.13
2018-05-10T20:00:55.024Z,24.57
2018-05-10T20:03:24.228Z,22.57
2018-05-10T20:05:53.847Z,23.13
2018-05-10T20:08:23.483Z,24.70
2018-05-10T20:10:52.885Z,27.03
2018-05-10T20:13:22.264Z,20.33
2018-05-10T20:15:51.927Z,21.67
2018-05-10T20:18:21.574Z,19.57
2018-05-10T20:20:51.214Z,21.87
2018-05-10T20:23:20.604Z,19.93
2018-05-10T20:25:49.975Z,16.07
2018-05-10T20:28:19.342Z,17.47
2018-05-10T20:30:48.915Z,13.63
2018-05-10T20:33:18.265Z,16.83
2018-05-10T20:35:47.663Z,19.07
2018-05-10T20:38:17.079Z,19.60
2018-05-10T20:40:46.617Z,18.30
2018-05-10T20:43:15.994Z,20.60
2018-05-10T20:45:45.648Z,17.93
2018-05-10T20:48:15.060Z,19.27
2018-05-10T20:50:44.416Z,19.67
2018-05-10T20:53:13.774Z,23.43
2018-05-10T20:55:43.119Z,20.80
2018-05-10T20:58:12.252Z,19.13
2018-05-10T21:00:41.939Z,18.10
2018-05-10T21:03:11.296Z,17.57
2018-05-10T21:05:41.060Z,13.23
2018-05-10T21:08:10.431Z,18.37
2018-05-10T21:10:40.055Z,16.43
2018-05-10T21:13:08.876Z,16.23
2018-05-10T21:15:38.229Z,14.43
2018-05-10T21:18:07.594Z,15.37
2018-05-10T21:20:36.936Z,17.57
2018-05-10T21:23:06.297Z,19.73
2018-05-10T21:25:35.907Z,16.60
2018-05-10T21:28:05.282Z,14.00
2018-05-10T21:30:34.623Z,16.47
2018-05-10T21:33:03.970Z,19.63
2018-05-10T21:35:33.320Z,18.63
2018-05-10T21:38:02.704Z,13.97
2018-05-10T21:40:32.059Z,13.97
2018-05-10T21:43:01.406Z,11.40
2018-05-10T21:45:30.749Z,17.83
2018-05-10T21:48:00.379Z,15.20
2018-05-10T21:50:29.777Z,15.27
2018-05-10T21:52:59.412Z,17.33
2018-05-10T21:55:28.763Z,18.53
2018-05-10T21:57:58.125Z,17.37
2018-05-10T22:00:27.467Z,14.40
2018-05-10T22:02:56.860Z,18.93
2018-05-10T22:05:26.523Z,13.07
2018-05-10T22:07:55.943Z,15.50
2018-05-10T22:10:25.638Z,15.53
2018-05-10T22:12:54.789Z,16.77
2018-05-10T22:15:24.668Z,19.20
2018-05-10T22:17:54.036Z,20.03
2018-05-10T22:20:23.734Z,16.73
2018-05-10T22:22:53.446Z,18.90
2018-05-10T22:25:23.085Z,22.23
2018-05-10T22:27:52.739Z,16.40
2018-05-10T22:30:22.094Z,15.90
2018-05-10T22:32:51.448Z,15.70
2018-05-10T22:35:20.886Z,20.57
2018-05-10T22:37:50.509Z,19.87
2018-05-10T22:40:20.163Z,16.63
2018-05-10T22:42:49.519Z,13.30
2018-05-10T22:45:18.869Z,11.07
2018-05-10T22:47:48.538Z,8.33
2018-05-10T22:50:17.893Z,14.50
2018-05-10T22:52:47.533Z,16.10
2018-05-10T22:55:16.881Z,12.57
2018-05-10T22:57:46.232Z,14.60
2018-05-10T23:00:15.621Z,18.30
2018-05-10T23:02:45.248Z,17.47
2018-05-10T23:05:14.901Z,20.37
2018-05-10T23:07:44.284Z,17.77
2018-05-10T23:10:13.872Z,17.67
2018-05-10T23:12:43.261Z,17.17
2018-05-10T23:15:12.901Z,15.63
2018-05-10T23:17:42.535Z,19.83
2018-05-10T23:20:12.166Z,15.70
2018-05-10T23:22:41.805Z,20.13
2018-05-10T23:25:11.484Z,16.63
2018-05-10T23:27:41.119Z,17.47
2018-05-10T23:30:10.758Z,16.23
2018-05-10T23:32:40.395Z,16.50
2018-05-10T23:35:10.038Z,17.90
2018-05-10T23:37:39.711Z,25.83
2018-05-10T23:40:09.339Z,18.97
2018-05-10T23:42:38.954Z,17.77
2018-05-10T23:45:08.653Z,23.50
2018-05-10T23:47:38.303Z,26.13
2018-05-10T23:50:07.979Z,17.07
2018-05-10T23:52:37.608Z,20.30
2018-05-10T23:55:07.241Z,16.77
2018-05-10T23:57:36.866Z,15.97
